createdAt,value
2022-11-16T00:02:13.292Z,93998.66
2022-11-16T00:04:43.079Z,94000.59
2022-11-16T00:07:11.753Z,94004.59
2022-11-16T00:09:39.826Z,93993.91
2022-11-16T00:12:11.331Z,93998.88
2022-11-16T00:14:39.587Z,93998.41
2022-11-16T00:17:07.630Z,93993.47
2022-11-16T00:19:35.640Z,93998.06
2022-11-16T00:22:05.268Z,93992.47
2022-11-16T00:24:33.418Z,94004.59
2022-11-16T00:27:01.574Z,93995.56
2022-11-16T00:29:29.736Z,94001.84
2022-11-16T00:31:58.033Z,93992.13
2022-11-16T00:34:26.337Z,93998.66
2022-11-16T00:36:54.481Z,93995.06
2022-11-16T00:39:24.113Z,93994.88
2022-11-16T00:41:52.336Z,93984.97
2022-11-16T00:44:20.470Z,93981.75
2022-11-16T00:46:48.722Z,93985.44
2022-11-16T00:49:17.155Z,93984.78
2022-11-16T00:51:45.528Z,93979.81
2022-11-16T00:54:13.983Z,93991.31
2022-11-16T00:56:43.633Z,93979.53
2022-11-16T00:59:12.995Z,93981.25
2022-11-16T01:01:43.172Z,93975.94
2022-11-16T01:04:11.356Z,93987.88
2022-11-16T01:06:39.384Z,93978.47
2022-11-16T01:09:07.482Z,93984.50
2022-11-16T01:11:58.339Z,93982.63
2022-11-16T01:14:27.813Z,93973.97
2022-11-16T01:16:55.899Z,93977.19
2022-11-16T01:19:24.025Z,93976.00
2022-11-16T01:21:52.240Z,93979.50
2022-11-16T01:24:20.399Z,93978.66
2022-11-16T01:26:48.695Z,93968.34
2022-11-16T01:29:17.117Z,93966.75
2022-11-16T01:31:53.516Z,93981.13
2022-11-16T01:34:21.840Z,93969.16
2022-11-16T01:36:51.469Z,93975.31
2022-11-16T01:39:20.320Z,94005.69
2022-11-16T01:41:53.337Z,93996.19
2022-11-16T01:44:54.508Z,93993.34
2022-11-16T01:47:24.178Z,94000.06
2022-11-16T01:49:55.738Z,93987.41
2022-11-16T01:52:32.498Z,93986.34
2022-11-16T01:55:02.107Z,93976.53
2022-11-16T01:58:16.156Z,93979.66
2022-11-16T02:00:44.309Z,93990.44
2022-11-16T02:03:43.089Z,93971.78
2022-11-16T02:06:33.356Z,93974.97
2022-11-16T02:09:51.816Z,93967.19
2022-11-16T02:12:38.723Z,93998.94
2022-11-16T02:15:19.315Z,93990.44
2022-11-16T02:18:05.309Z,93985.06
2022-11-16T02:21:08.889Z,93977.72
2022-11-16T02:24:12.401Z,93983.25
2022-11-16T02:27:15.470Z,93988.47
2022-11-16T02:29:49.590Z,93988.81
2022-11-16T02:32:20.944Z,93982.31
2022-11-16T02:34:55.316Z,93984.78
2022-11-16T02:37:26.716Z,93992.47
2022-11-16T02:39:58.927Z,93988.91
2022-11-16T02:42:31.550Z,93997.25
2022-11-16T02:45:03.347Z,93996.97
2022-11-16T02:47:34.406Z,93986.72
2022-11-16T02:50:10.119Z,93988.34
2022-11-16T02:52:39.912Z,93981.41
2022-11-16T02:55:10.791Z,93987.34
2022-11-16T02:57:44.364Z,93989.44
2022-11-16T03:00:22.456Z,93986.84
2022-11-16T03:03:00.501Z,93987.94
2022-11-16T03:05:33.396Z,93983.78
2022-11-16T03:08:17.523Z,93987.47
2022-11-16T03:11:07.119Z,94000.25
2022-11-16T03:13:37.478Z,94005.59
2022-11-16T03:16:13.669Z,94005.09
2022-11-16T03:18:44.974Z,94006.47
2022-11-16T03:21:18.524Z,94008.47
2022-11-16T03:23:47.238Z,94012.16
2022-11-16T03:26:20.408Z,94015.50
2022-11-16T03:28:54.359Z,94017.09
2022-11-16T03:31:31.073Z,94027.59
2022-11-16T03:34:05.483Z,94029.41
2022-11-16T03:36:36.943Z,94030.97
2022-11-16T03:39:09.430Z,94032.78
2022-11-16T03:41:43.261Z,94037.34
2022-11-16T03:44:14.164Z,94031.34
2022-11-16T03:46:45.388Z,94040.00
2022-11-16T03:49:14.900Z,94038.44
2022-11-16T03:51:44.074Z,94047.34
2022-11-16T03:54:12.256Z,94039.25
2022-11-16T03:56:41.217Z,94047.09
2022-11-16T03:59:09.961Z,94051.06
2022-11-16T04:01:41.870Z,94052.63
2022-11-16T04:04:35.475Z,94052.88
2022-11-16T04:07:22.707Z,94061.81
2022-11-16T04:10:05.057Z,94063.63
2022-11-16T04:12:52.011Z,94063.66
2022-11-16T04:15:37.361Z,94069.94
2022-11-16T04:18:23.559Z,94071.03
2022-11-16T04:21:10.717Z,94074.09
2022-11-16T04:23:56.318Z,94073.47
2022-11-16T04:26:44.943Z,94076.38
2022-11-16T04:29:13.729Z,94076.88
2022-11-16T04:32:13.702Z,94080.91
2022-11-16T04:34:59.607Z,94079.06
2022-11-16T04:37:48.708Z,94079.63
2022-11-16T04:40:26.410Z,94081.72
2022-11-16T04:42:55.392Z,94080.94
2022-11-16T04:45:42.542Z,94078.34
2022-11-16T04:48:11.903Z,94066.00
2022-11-16T04:50:41.660Z,94067.59
2022-11-16T04:53:11.405Z,94069.19
2022-11-16T04:55:51.056Z,94066.53
2022-11-16T04:58:21.347Z,94075.78
2022-11-16T05:00:50.521Z,94072.63
2022-11-16T05:03:18.888Z,94074.16
2022-11-16T05:05:46.928Z,94070.78
2022-11-16T05:08:16.350Z,94067.56
2022-11-16T05:10:46.605Z,94061.00
2022-11-16T05:13:14.615Z,94059.94
2022-11-16T05:15:46.481Z,94055.72
2022-11-16T05:18:14.631Z,94052.53
2022-11-16T05:21:00.012Z,94048.31
2022-11-16T05:23:49.229Z,94046.38
2022-11-16T05:26:20.706Z,94031.66
2022-11-16T05:28:49.210Z,94039.75
2022-11-16T05:31:17.242Z,94046.56
2022-11-16T05:33:45.443Z,94048.13
2022-11-16T05:36:15.659Z,94041.72
2022-11-16T05:38:45.120Z,94044.03
2022-11-16T05:41:13.290Z,94045.38
2022-11-16T05:43:41.393Z,94056.63
2022-11-16T05:46:15.552Z,94054.00
2022-11-16T05:48:44.503Z,94057.94
2022-11-16T05:51:13.690Z,94049.78
2022-11-16T05:53:41.870Z,94043.53
2022-11-16T05:56:14.306Z,94054.84
2022-11-16T05:58:44.014Z,94061.91
2022-11-16T06:01:12.076Z,94054.38
2022-11-16T06:03:40.318Z,94055.34
2022-11-16T06:06:09.205Z,94047.16
2022-11-16T06:08:37.755Z,94047.94
2022-11-16T06:11:11.290Z,94036.09
2022-11-16T06:13:41.791Z,94051.44
2022-11-16T06:16:10.400Z,94055.34
2022-11-16T06:18:39.833Z,94052.44
2022-11-16T06:21:10.106Z,94047.47
2022-11-16T06:23:38.569Z,94053.50
2022-11-16T06:26:07.770Z,94050.59
2022-11-16T06:28:36.907Z,94044.31
2022-11-16T06:31:07.779Z,94054.03
2022-11-16T06:33:40.900Z,94047.72
2022-11-16T06:36:18.363Z,94040.13
2022-11-16T06:38:46.828Z,94052.03
2022-11-16T06:41:15.412Z,94048.63
2022-11-16T06:43:47.465Z,94054.19
2022-11-16T06:46:19.240Z,94052.53
2022-11-16T06:48:49.535Z,94041.09
2022-11-16T06:51:18.868Z,94047.88
2022-11-16T06:53:47.809Z,94067.34
2022-11-16T06:56:17.050Z,94065.81
2022-11-16T06:58:53.205Z,94059.28
2022-11-16T07:01:23.580Z,94057.09
2022-11-16T07:03:57.686Z,94064.72
2022-11-16T07:06:25.855Z,94069.25
2022-11-16T07:08:53.970Z,94070.84
2022-11-16T07:11:26.227Z,94068.31
2022-11-16T07:13:54.532Z,94068.38
2022-11-16T07:16:24.195Z,94065.47
2022-11-16T07:19:00.486Z,94066.06
2022-11-16T07:21:31.720Z,94072.91
2022-11-16T07:24:02.686Z,94064.50
2022-11-16T07:26:31.539Z,94062.91
2022-11-16T07:29:06.162Z,94062.38
2022-11-16T07:31:38.581Z,94068.19
2022-11-16T07:34:27.819Z,94066.88
2022-11-16T07:37:08.726Z,94072.38
2022-11-16T07:39:36.772Z,94072.41
2022-11-16T07:42:11.643Z,94078.50
2022-11-16T07:44:53.494Z,94088.53
2022-11-16T07:47:22.983Z,94082.97
2022-11-16T07:49:51.190Z,94084.56
2022-11-16T07:52:21.702Z,94086.41
2022-11-16T07:54:58.028Z,94087.72
2022-11-16T07:57:28.548Z,94089.03
2022-11-16T07:59:59.725Z,94096.94
2022-11-16T08:02:31.262Z,94090.66
2022-11-16T08:05:00.474Z,94097.25
2022-11-16T08:07:30.200Z,94097.75
2022-11-16T08:09:58.513Z,94106.72
2022-11-16T08:12:26.650Z,94092.50
2022-11-16T08:14:57.555Z,94096.69
2022-11-16T08:17:27.870Z,94100.69
2022-11-16T08:19:57.253Z,94105.94
2022-11-16T08:22:25.453Z,94102.78
2022-11-16T08:24:54.066Z,94104.09
2022-11-16T08:27:23.954Z,94103.84
2022-11-16T08:29:56.118Z,94107.00
2022-11-16T08:32:24.578Z,94105.13
2022-11-16T08:34:54.640Z,94100.41
2022-11-16T08:37:26.054Z,94111.75
2022-11-16T08:39:54.538Z,94108.31
2022-11-16T08:42:22.824Z,94108.28
2022-11-16T08:44:50.972Z,94115.41
2022-11-16T08:47:21.093Z,94107.75
2022-11-16T08:49:53.146Z,94111.47
2022-11-16T08:52:24.171Z,94112.50
2022-11-16T08:54:54.035Z,94124.41
2022-11-16T08:57:22.449Z,94123.34
2022-11-16T08:59:55.256Z,94129.66
2022-11-16T09:02:25.630Z,94131.78
2022-11-16T09:04:54.829Z,94128.06
2022-11-16T09:07:24.218Z,94131.75
2022-11-16T09:09:52.101Z,94133.06
2022-11-16T09:12:20.094Z,94130.16
2022-11-16T09:14:48.113Z,94128.84
2022-11-16T09:17:20.302Z,94140.47
2022-11-16T09:19:50.612Z,94136.53
2022-11-16T09:22:18.668Z,94140.44
2022-11-16T09:24:48.008Z,94134.09
2022-11-16T09:27:16.873Z,94140.44
2022-11-16T09:29:45.016Z,94140.94
2022-11-16T09:32:13.023Z,94134.88
2022-11-16T09:34:41.025Z,94128.00
2022-11-16T09:37:09.254Z,94131.97
2022-11-16T09:39:37.416Z,94135.94
2022-11-16T09:42:25.615Z,94138.56
2022-11-16T09:45:01.275Z,94124.84
2022-11-16T09:47:41.279Z,94136.94
2022-11-16T09:50:21.149Z,94134.50
2022-11-16T09:52:52.623Z,94138.16
2022-11-16T09:55:26.806Z,94141.88
2022-11-16T09:58:02.619Z,94140.00
2022-11-16T10:00:32.271Z,94128.50
2022-11-16T10:03:06.218Z,94136.97
2022-11-16T10:05:40.202Z,94135.91
2022-11-16T10:08:17.357Z,94130.16
2022-11-16T10:10:54.231Z,94125.94
2022-11-16T10:13:35.482Z,94126.13
2022-11-16T10:16:11.001Z,94126.75
2022-11-16T10:18:50.431Z,94124.69
2022-11-16T10:21:33.142Z,94129.13
2022-11-16T10:24:22.487Z,94120.31
2022-11-16T10:26:59.498Z,94119.38
2022-11-16T10:29:45.198Z,94123.63
2022-11-16T10:32:25.929Z,94117.09
2022-11-16T10:34:55.794Z,94120.59
2022-11-16T10:37:29.239Z,94113.63
2022-11-16T10:39:58.674Z,94108.97
2022-11-16T10:42:32.446Z,94111.75
2022-11-16T10:45:09.215Z,94112.63
2022-11-16T10:47:44.718Z,94108.44
2022-11-16T10:50:32.846Z,94107.00
2022-11-16T10:53:01.438Z,94110.41
2022-11-16T10:55:29.784Z,94106.63
2022-11-16T10:58:00.125Z,94104.31
2022-11-16T11:00:39.142Z,94102.47
2022-11-16T11:03:09.569Z,94102.28
2022-11-16T11:05:38.562Z,94101.34
2022-11-16T11:08:10.398Z,94105.22
2022-11-16T11:10:40.345Z,94118.09
2022-11-16T11:13:23.575Z,94117.56
2022-11-16T11:15:53.468Z,94111.56
2022-11-16T11:18:29.127Z,94115.25
2022-11-16T11:21:10.164Z,94117.25
2022-11-16T11:23:45.171Z,94112.63
2022-11-16T11:26:35.879Z,94095.91
2022-11-16T11:29:21.688Z,94105.75
2022-11-16T11:31:55.511Z,94108.75
2022-11-16T11:34:26.622Z,94105.69
2022-11-16T11:36:57.951Z,94107.50
2022-11-16T11:39:36.531Z,94100.16
2022-11-16T11:42:08.217Z,94097.28
2022-11-16T11:44:49.216Z,94097.81
2022-11-16T11:47:56.341Z,94087.41
2022-11-16T11:50:20.619Z,94088.25
2022-11-16T11:53:00.296Z,94083.59
2022-11-16T11:55:28.631Z,94076.03
2022-11-16T11:57:57.997Z,94071.91
2022-11-16T12:00:27.149Z,94079.66
2022-11-16T12:03:14.376Z,94075.75
2022-11-16T12:05:57.887Z,94074.66
2022-11-16T12:08:43.156Z,94068.75
2022-11-16T12:11:14.204Z,94054.19
2022-11-16T12:14:10.958Z,94061.97
2022-11-16T12:16:45.737Z,94054.84
2022-11-16T12:19:31.723Z,94071.44
2022-11-16T12:22:08.992Z,94074.69
2022-11-16T12:24:52.549Z,94065.84
2022-11-16T12:27:29.285Z,94070.53
2022-11-16T12:30:02.348Z,94068.31
2022-11-16T12:32:48.512Z,94055.03
2022-11-16T12:35:39.594Z,94056.25
2022-11-16T12:38:26.363Z,94057.22
2022-11-16T12:41:08.958Z,94056.75
2022-11-16T12:43:45.907Z,94055.75
2022-11-16T12:46:20.786Z,94059.69
2022-11-16T12:49:27.352Z,94048.88
2022-11-16T12:52:13.642Z,94057.91
2022-11-16T12:55:25.463Z,94059.88
2022-11-16T12:58:03.671Z,94057.53
2022-11-16T13:00:36.304Z,94051.00
2022-11-16T13:03:18.890Z,94049.81
2022-11-16T13:05:56.742Z,94052.56
2022-11-16T13:08:37.455Z,94047.06
2022-11-16T13:11:12.220Z,94049.59
2022-11-16T13:13:40.611Z,94047.00
2022-11-16T13:16:10.177Z,94044.44
2022-11-16T13:18:42.465Z,94046.22
2022-11-16T13:21:22.022Z,94047.19
2022-11-16T13:24:02.765Z,94040.06
2022-11-16T13:26:37.646Z,94033.38
2022-11-16T13:29:11.058Z,94035.22
2022-11-16T13:31:43.798Z,94036.53
2022-11-16T13:34:18.362Z,94029.34
2022-11-16T13:36:47.855Z,94039.47
2022-11-16T13:39:22.517Z,94038.59
2022-11-16T13:41:52.693Z,94032.66
2022-11-16T13:44:29.500Z,94039.66
2022-11-16T13:47:04.330Z,94026.13
2022-11-16T13:49:34.835Z,94023.88
2022-11-16T13:52:22.768Z,94018.63
2022-11-16T13:54:55.470Z,94014.91
2022-11-16T13:57:27.156Z,94019.56
2022-11-16T14:00:10.369Z,94012.69
2022-11-16T14:02:40.510Z,94014.78
2022-11-16T14:05:17.530Z,94006.19
2022-11-16T14:07:49.621Z,93998.19
2022-11-16T14:11:05.026Z,94001.59
2022-11-16T14:13:41.055Z,93996.31
2022-11-16T14:16:55.115Z,93984.00
2022-11-16T14:19:55.189Z,93984.88
2022-11-16T14:22:52.576Z,93984.41
2022-11-16T14:25:33.273Z,93984.09
2022-11-16T14:28:25.702Z,93986.56
2022-11-16T14:31:06.572Z,93989.13
2022-11-16T14:33:37.366Z,93982.84
2022-11-16T14:36:09.059Z,93981.69
2022-11-16T14:38:39.829Z,93985.66
2022-11-16T14:41:14.570Z,93983.06
2022-11-16T14:43:48.115Z,93987.47
2022-11-16T14:46:23.282Z,93984.00
2022-11-16T14:48:51.484Z,93988.88
2022-11-16T14:51:24.162Z,93987.00
2022-11-16T14:53:55.756Z,93992.09
2022-11-16T14:56:24.056Z,93984.63
2022-11-16T14:58:56.591Z,93985.31
2022-11-16T15:01:27.525Z,93986.19
2022-11-16T15:04:02.372Z,93983.06
2022-11-16T15:06:34.402Z,93991.31
2022-11-16T15:09:06.168Z,93990.78
2022-11-16T15:11:54.967Z,93992.31
2022-11-16T15:14:27.849Z,93985.94
2022-11-16T15:16:57.432Z,93992.41
2022-11-16T15:19:25.794Z,93991.31
2022-11-16T15:21:55.735Z,93990.78
2022-11-16T15:24:31.063Z,93990.84
2022-11-16T15:27:11.554Z,93978.28
2022-11-16T15:29:40.938Z,93977.78
2022-11-16T15:32:16.201Z,93977.03
2022-11-16T15:34:46.996Z,93979.56
2022-11-16T15:37:15.326Z,93984.91
2022-11-16T15:39:44.041Z,93987.56
2022-11-16T15:42:16.458Z,93984.94
2022-11-16T15:44:46.557Z,93987.56
2022-11-16T15:47:15.385Z,93990.47
2022-11-16T15:49:44.743Z,93986.00
2022-11-16T15:52:13.424Z,93983.91
2022-11-16T15:55:04.460Z,93984.66
2022-11-16T15:57:32.781Z,93977.97
2022-11-16T16:00:02.148Z,93976.03
2022-11-16T16:02:35.150Z,93985.44
2022-11-16T16:05:03.224Z,93987.81
2022-11-16T16:07:38.363Z,93984.25
2022-11-16T16:10:14.562Z,93980.63
2022-11-16T16:12:48.634Z,93986.69
2022-11-16T16:15:29.964Z,93980.09
2022-11-16T16:17:59.868Z,93985.09
2022-11-16T16:20:30.369Z,93987.19
2022-11-16T16:23:12.408Z,93982.97
2022-11-16T16:25:40.418Z,93985.84
2022-11-16T16:28:08.588Z,93987.13
2022-11-16T16:30:39.538Z,93983.38
2022-11-16T16:33:07.730Z,93978.28
2022-11-16T16:35:35.679Z,93991.06
2022-11-16T16:38:03.656Z,93998.50
2022-11-16T16:40:31.696Z,93999.28
2022-11-16T16:42:59.655Z,93995.47
2022-11-16T16:45:35.521Z,93986.41
2022-11-16T16:48:05.076Z,93996.31
2022-11-16T16:50:33.214Z,94007.44
2022-11-16T16:53:01.323Z,94002.59
2022-11-16T16:55:32.868Z,93992.19
2022-11-16T16:58:03.830Z,93998.06
2022-11-16T17:00:31.844Z,93986.91
2022-11-16T17:03:01.552Z,93994.34
2022-11-16T17:05:33.909Z,93996.34
2022-11-16T17:08:02.571Z,93991.97
2022-11-16T17:10:30.662Z,93989.03
2022-11-16T17:13:02.446Z,93983.94
2022-11-16T17:15:30.712Z,93981.59
2022-11-16T17:17:59.879Z,93982.94
2022-11-16T17:20:27.966Z,93979.28
2022-11-16T17:22:58.159Z,93963.69
2022-11-16T17:25:26.209Z,93969.00
2022-11-16T17:27:54.356Z,93973.88
2022-11-16T17:30:22.471Z,93974.16
2022-11-16T17:32:50.587Z,93952.59
2022-11-16T17:35:18.868Z,93956.56
2022-11-16T17:37:46.903Z,93957.16
2022-11-16T17:40:16.867Z,93948.28
2022-11-16T17:42:44.922Z,93944.88
2022-11-16T17:45:13.271Z,93951.06
2022-11-16T17:47:41.221Z,93946.19
2022-11-16T17:50:10.062Z,93950.06
2022-11-16T17:52:38.159Z,93941.38
2022-11-16T17:55:07.474Z,93941.13
2022-11-16T17:57:36.795Z,93946.72
2022-11-16T18:00:05.545Z,93939.50
2022-11-16T18:02:35.195Z,93943.47
2022-11-16T18:05:05.525Z,93937.13
2022-11-16T18:07:33.488Z,93946.50
2022-11-16T18:10:01.666Z,93955.63
2022-11-16T18:12:30.343Z,93945.88
2022-11-16T18:15:26.393Z,93945.09
2022-11-16T18:17:47.865Z,93951.59
2022-11-16T18:20:16.027Z,93954.94
2022-11-16T18:22:43.970Z,93950.81
2022-11-16T18:25:13.163Z,93950.38
2022-11-16T18:27:41.141Z,93945.13
2022-11-16T18:30:12.395Z,93937.28
2022-11-16T18:32:40.942Z,93938.84
2022-11-16T18:35:09.975Z,93930.69
2022-11-16T18:37:37.991Z,93931.25
2022-11-16T18:40:07.020Z,93928.84
2022-11-16T18:42:35.010Z,93924.47
2022-11-16T18:45:03.089Z,93919.94
2022-11-16T18:47:32.531Z,93925.56
2022-11-16T18:50:00.956Z,93920.00
2022-11-16T18:52:28.999Z,93917.09
2022-11-16T18:54:57.397Z,93910.66
2022-11-16T18:57:25.466Z,93907.19
2022-11-16T18:59:53.824Z,93906.16
2022-11-16T19:02:21.776Z,93899.91
2022-11-16T19:04:51.335Z,93898.09
2022-11-16T19:07:19.347Z,93891.91
2022-11-16T19:09:47.362Z,93896.34
2022-11-16T19:12:15.392Z,93885.88
2022-11-16T19:14:43.363Z,93892.31
2022-11-16T19:17:11.420Z,93884.38
2022-11-16T19:19:39.433Z,93884.53
2022-11-16T19:22:08.781Z,93885.50
2022-11-16T19:24:36.870Z,93885.97
2022-11-16T19:27:04.918Z,93872.25
2022-11-16T19:29:32.937Z,93867.25
2022-11-16T19:32:00.972Z,93862.50
2022-11-16T19:34:33.342Z,93867.19
2022-11-16T19:37:01.700Z,93865.06
2022-11-16T19:39:31.008Z,93864.50
2022-11-16T19:41:59.048Z,93863.63
2022-11-16T19:44:26.985Z,93851.47
2022-11-16T19:46:54.964Z,93857.13
2022-11-16T19:49:23.396Z,93860.75
2022-11-16T19:51:51.262Z,93854.69
2022-11-16T19:54:19.470Z,93848.66
2022-11-16T19:56:53.722Z,93846.84
2022-11-16T19:59:23.973Z,93839.22
2022-11-16T20:01:52.415Z,93844.78
2022-11-16T20:04:20.813Z,93852.53
2022-11-16T20:06:49.140Z,93857.63
2022-11-16T20:09:17.573Z,93846.28
2022-11-16T20:11:45.701Z,93847.63
2022-11-16T20:14:15.574Z,93844.53
2022-11-16T20:16:47.203Z,93851.00
2022-11-16T20:19:15.807Z,93855.97
2022-11-16T20:21:45.177Z,93846.09
2022-11-16T20:24:15.838Z,93839.56
2022-11-16T20:26:46.619Z,93836.63
2022-11-16T20:29:17.622Z,93837.13
2022-11-16T20:31:47.043Z,93837.72
2022-11-16T20:34:16.880Z,93838.38
2022-11-16T20:36:47.057Z,93840.13
2022-11-16T20:39:16.587Z,93837.75
2022-11-16T20:41:45.232Z,93840.22
2022-11-16T20:44:18.349Z,93844.63
2022-11-16T20:46:46.845Z,93846.88
2022-11-16T20:49:14.951Z,93841.94
2022-11-16T20:51:42.861Z,93838.81
2022-11-16T20:54:10.880Z,93844.03
2022-11-16T20:56:38.817Z,93856.72
2022-11-16T20:59:06.830Z,93855.78
2022-11-16T21:01:37.019Z,93863.47
2022-11-16T21:04:06.722Z,93862.31
2022-11-16T21:06:34.999Z,93851.94
2022-11-16T21:09:04.710Z,93846.03
2022-11-16T21:11:54.749Z,93844.66
2022-11-16T21:14:22.760Z,93841.19
2022-11-16T21:16:52.072Z,93837.91
2022-11-16T21:19:20.438Z,93840.97
2022-11-16T21:21:48.412Z,93830.13
2022-11-16T21:24:16.438Z,93824.06
2022-11-16T21:26:44.940Z,93818.78
2022-11-16T21:29:12.895Z,93808.69
2022-11-16T21:31:41.008Z,93798.66
2022-11-16T21:34:10.442Z,93799.41
2022-11-16T21:36:38.479Z,93798.63
2022-11-16T21:39:06.436Z,93801.84
2022-11-16T21:41:34.790Z,93799.34
2022-11-16T21:44:03.104Z,93797.22
2022-11-16T21:46:31.220Z,93793.19
2022-11-16T21:48:59.522Z,93797.78
2022-11-16T21:51:28.897Z,93801.19
2022-11-16T21:53:56.986Z,93797.78
2022-11-16T21:56:26.408Z,93803.53
2022-11-16T21:58:55.157Z,93801.56
2022-11-16T22:01:24.488Z,93794.88
2022-11-16T22:04:06.768Z,93788.88
2022-11-16T22:06:54.160Z,93793.47
2022-11-16T22:09:22.918Z,93794.09
2022-11-16T22:11:50.922Z,93787.22
2022-11-16T22:14:18.856Z,93778.84
2022-11-16T22:16:46.964Z,93780.50
2022-11-16T22:19:15.062Z,93781.53
2022-11-16T22:21:44.423Z,93782.66
2022-11-16T22:24:12.427Z,93785.13
2022-11-16T22:26:41.098Z,93789.22
2022-11-16T22:29:09.136Z,93795.97
2022-11-16T22:31:37.251Z,93785.78
2022-11-16T22:34:06.490Z,93785.53
2022-11-16T22:36:34.463Z,93784.97
2022-11-16T22:39:03.915Z,93776.72
2022-11-16T22:41:31.853Z,93777.63
2022-11-16T22:43:59.806Z,93778.50
2022-11-16T22:46:27.908Z,93779.28
2022-11-16T22:48:55.935Z,93782.50
2022-11-16T22:51:26.001Z,93777.97
2022-11-16T22:53:55.044Z,93770.16
2022-11-16T22:56:25.145Z,93766.88
2022-11-16T22:58:53.323Z,93761.22
2022-11-16T23:01:21.880Z,93756.03
2022-11-16T23:03:50.219Z,93749.28
2022-11-16T23:06:18.333Z,93740.19
2022-11-16T23:08:46.412Z,93742.06
2022-11-16T23:11:34.085Z,93739.50
2022-11-16T23:14:22.585Z,93732.09
2022-11-16T23:16:51.288Z,93736.31
2022-11-16T23:19:35.242Z,93727.56
2022-11-16T23:22:21.510Z,93726.53
2022-11-16T23:25:06.831Z,93716.38
2022-11-16T23:27:41.501Z,93727.56
2022-11-16T23:30:13.039Z,93726.81
2022-11-16T23:32:41.767Z,93724.78
2022-11-16T23:35:10.629Z,93717.84
2022-11-16T23:37:51.005Z,93722.09
2022-11-16T23:40:19.258Z,93723.38
2022-11-16T23:43:04.586Z,93717.19
2022-11-16T23:45:34.127Z,93720.94
2022-11-16T23:48:02.229Z,93719.50
2022-11-16T23:50:30.289Z,93713.13
2022-11-16T23:52:59.041Z,93716.50
2022-11-16T23:55:27.781Z,93703.66
2022-11-16T23:57:56.089Z,93703.69
